sensor_id;sensor_type;location;lat;lon;timestamp;P1;durP1;ratioP1;P2;durP2;ratioP2
20609;SDS011;10463;52.378;9.688;2023-03-14T00:02:08;1.20;;;0.70;;
20609;SDS011;10463;52.378;9.688;2023-03-14T00:04:54;1.43;;;0.70;;
20609;SDS011;10463;52.378;9.688;2023-03-14T00:07:39;1.57;;;0.80;;
20609;SDS011;10463;52.378;9.688;2023-03-14T00:10:24;1.60;;;0.90;;
20609;SDS011;10463;52.378;9.688;2023-03-14T00:13:08;1.70;;;0.93;;
20609;SDS011;10463;52.378;9.688;2023-03-14T00:15:53;1.73;;;1.13;;
20609;SDS011;10463;52.378;9.688;2023-03-14T00:18:39;1.50;;;0.90;;
20609;SDS011;10463;52.378;9.688;2023-03-14T00:21:25;1.37;;;0.80;;
20609;SDS011;10463;52.378;9.688;2023-03-14T00:24:10;1.60;;;0.90;;
20609;SDS011;10463;52.378;9.688;2023-03-14T00:26:54;1.67;;;0.77;;
20609;SDS011;10463;52.378;9.688;2023-03-14T00:29:42;1.80;;;0.90;;
20609;SDS011;10463;52.378;9.688;2023-03-14T00:32:27;1.60;;;0.80;;
20609;SDS011;10463;52.378;9.688;2023-03-14T00:35:14;2.07;;;0.80;;
20609;SDS011;10463;52.378;9.688;2023-03-14T00:37:59;1.40;;;0.87;;
20609;SDS011;10463;52.378;9.688;2023-03-14T00:40:44;1.33;;;0.70;;
20609;SDS011;10463;52.378;9.688;2023-03-14T00:43:28;1.53;;;0.90;;
20609;SDS011;10463;52.378;9.688;2023-03-14T00:46:13;1.50;;;0.80;;
20609;SDS011;10463;52.378;9.688;2023-03-14T00:48:57;2.10;;;1.00;;
20609;SDS011;10463;52.378;9.688;2023-03-14T00:51:43;1.60;;;0.70;;
20609;SDS011;10463;52.378;9.688;2023-03-14T00:54:29;1.63;;;1.00;;
20609;SDS011;10463;52.378;9.688;2023-03-14T00:57:14;1.40;;;0.73;;
20609;SDS011;10463;52.378;9.688;2023-03-14T00:59:59;1.30;;;0.70;;
20609;SDS011;10463;52.378;9.688;2023-03-14T01:02:44;1.50;;;0.70;;
20609;SDS011;10463;52.378;9.688;2023-03-14T01:05:29;1.60;;;0.80;;
20609;SDS011;10463;52.378;9.688;2023-03-14T01:08:15;1.30;;;0.70;;
20609;SDS011;10463;52.378;9.688;2023-03-14T01:11:00;1.40;;;0.70;;
20609;SDS011;10463;52.378;9.688;2023-03-14T01:13:49;1.53;;;0.73;;
20609;SDS011;10463;52.378;9.688;2023-03-14T01:16:35;1.60;;;0.80;;
20609;SDS011;10463;52.378;9.688;2023-03-14T01:19:19;1.70;;;0.90;;
20609;SDS011;10463;52.378;9.688;2023-03-14T01:22:04;1.50;;;0.80;;
20609;SDS011;10463;52.378;9.688;2023-03-14T01:24:50;1.50;;;0.80;;
20609;SDS011;10463;52.378;9.688;2023-03-14T01:27:35;1.30;;;0.80;;
20609;SDS011;10463;52.378;9.688;2023-03-14T01:30:20;1.60;;;0.93;;
20609;SDS011;10463;52.378;9.688;2023-03-14T01:33:04;1.53;;;0.80;;
20609;SDS011;10463;52.378;9.688;2023-03-14T01:35:49;1.50;;;0.77;;
20609;SDS011;10463;52.378;9.688;2023-03-14T01:38:35;1.77;;;0.80;;
20609;SDS011;10463;52.378;9.688;2023-03-14T01:41:25;1.40;;;0.90;;
20609;SDS011;10463;52.378;9.688;2023-03-14T01:44:12;1.50;;;0.90;;
20609;SDS011;10463;52.378;9.688;2023-03-14T01:46:57;1.40;;;0.90;;
20609;SDS011;10463;52.378;9.688;2023-03-14T01:49:41;1.40;;;0.80;;
20609;SDS011;10463;52.378;9.688;2023-03-14T01:52:31;1.37;;;0.73;;
20609;SDS011;10463;52.378;9.688;2023-03-14T01:55:21;1.30;;;0.70;;
20609;SDS011;10463;52.378;9.688;2023-03-14T01:58:10;1.63;;;0.80;;
20609;SDS011;10463;52.378;9.688;2023-03-14T02:00:55;1.33;;;0.80;;
20609;SDS011;10463;52.378;9.688;2023-03-14T02:03:46;1.70;;;0.90;;
20609;SDS011;10463;52.378;9.688;2023-03-14T02:06:39;1.30;;;0.80;;
20609;SDS011;10463;52.378;9.688;2023-03-14T02:09:30;1.30;;;0.80;;
20609;SDS011;10463;52.378;9.688;2023-03-14T02:12:16;1.60;;;0.90;;
20609;SDS011;10463;52.378;9.688;2023-03-14T02:15:08;1.57;;;0.97;;
20609;SDS011;10463;52.378;9.688;2023-03-14T02:18:26;1.40;;;0.70;;
20609;SDS011;10463;52.378;9.688;2023-03-14T02:21:37;1.60;;;1.00;;
20609;SDS011;10463;52.378;9.688;2023-03-14T02:24:34;1.50;;;0.80;;
20609;SDS011;10463;52.378;9.688;2023-03-14T02:27:29;1.30;;;0.70;;
20609;SDS011;10463;52.378;9.688;2023-03-14T02:30:16;1.20;;;0.60;;
20609;SDS011;10463;52.378;9.688;2023-03-14T02:33:05;1.50;;;0.77;;
20609;SDS011;10463;52.378;9.688;2023-03-14T02:35:55;1.33;;;0.80;;
20609;SDS011;10463;52.378;9.688;2023-03-14T02:39:04;1.67;;;0.80;;
20609;SDS011;10463;52.378;9.688;2023-03-14T02:41:53;1.50;;;0.80;;
20609;SDS011;10463;52.378;9.688;2023-03-14T02:44:49;1.40;;;0.80;;
20609;SDS011;10463;52.378;9.688;2023-03-14T02:47:38;1.33;;;0.80;;
20609;SDS011;10463;52.378;9.688;2023-03-14T02:50:27;1.30;;;0.70;;
20609;SDS011;10463;52.378;9.688;2023-03-14T02:53:17;1.40;;;0.90;;
20609;SDS011;10463;52.378;9.688;2023-03-14T02:56:06;1.80;;;0.77;;
20609;SDS011;10463;52.378;9.688;2023-03-14T02:58:53;1.40;;;0.80;;
20609;SDS011;10463;52.378;9.688;2023-03-14T03:01:52;1.50;;;0.80;;
20609;SDS011;10463;52.378;9.688;2023-03-14T03:04:37;2.00;;;0.80;;
20609;SDS011;10463;52.378;9.688;2023-03-14T03:07:21;1.70;;;0.80;;
20609;SDS011;10463;52.378;9.688;2023-03-14T03:10:07;1.70;;;1.00;;
20609;SDS011;10463;52.378;9.688;2023-03-14T03:12:53;1.30;;;0.70;;
20609;SDS011;10463;52.378;9.688;2023-03-14T03:15:42;1.80;;;0.70;;
20609;SDS011;10463;52.378;9.688;2023-03-14T03:18:28;2.23;;;0.80;;
20609;SDS011;10463;52.378;9.688;2023-03-14T03:21:12;1.60;;;0.90;;
20609;SDS011;10463;52.378;9.688;2023-03-14T03:24:00;1.67;;;0.80;;
20609;SDS011;10463;52.378;9.688;2023-03-14T03:26:46;1.50;;;0.80;;
20609;SDS011;10463;52.378;9.688;2023-03-14T03:29:30;1.20;;;0.70;;
20609;SDS011;10463;52.378;9.688;2023-03-14T03:32:16;1.43;;;0.87;;
20609;SDS011;10463;52.378;9.688;2023-03-14T03:35:03;1.40;;;0.70;;
20609;SDS011;10463;52.378;9.688;2023-03-14T03:37:49;1.30;;;0.70;;
20609;SDS011;10463;52.378;9.688;2023-03-14T03:40:34;1.60;;;1.00;;
20609;SDS011;10463;52.378;9.688;2023-03-14T03:43:18;1.50;;;0.70;;
20609;SDS011;10463;52.378;9.688;2023-03-14T03:46:06;1.40;;;0.70;;
20609;SDS011;10463;52.378;9.688;2023-03-14T03:48:54;1.47;;;0.70;;
20609;SDS011;10463;52.378;9.688;2023-03-14T03:51:40;1.30;;;0.80;;
20609;SDS011;10463;52.378;9.688;2023-03-14T03:54:25;1.27;;;0.60;;
20609;SDS011;10463;52.378;9.688;2023-03-14T03:57:10;1.40;;;0.60;;
20609;SDS011;10463;52.378;9.688;2023-03-14T03:59:55;1.60;;;0.67;;
20609;SDS011;10463;52.378;9.688;2023-03-14T04:02:40;1.30;;;0.70;;
20609;SDS011;10463;52.378;9.688;2023-03-14T04:05:26;1.20;;;0.70;;
20609;SDS011;10463;52.378;9.688;2023-03-14T04:08:19;1.40;;;0.60;;
20609;SDS011;10463;52.378;9.688;2023-03-14T04:11:04;1.40;;;0.70;;
20609;SDS011;10463;52.378;9.688;2023-03-14T04:14:22;1.30;;;0.70;;
20609;SDS011;10463;52.378;9.688;2023-03-14T04:17:17;1.50;;;0.80;;
20609;SDS011;10463;52.378;9.688;2023-03-14T04:20:02;1.50;;;0.80;;
20609;SDS011;10463;52.378;9.688;2023-03-14T04:22:53;1.50;;;0.67;;
20609;SDS011;10463;52.378;9.688;2023-03-14T04:25:39;1.60;;;0.70;;
20609;SDS011;10463;52.378;9.688;2023-03-14T04:28:24;1.80;;;0.97;;
20609;SDS011;10463;52.378;9.688;2023-03-14T04:31:09;1.40;;;0.70;;
20609;SDS011;10463;52.378;9.688;2023-03-14T04:33:57;1.37;;;0.80;;
20609;SDS011;10463;52.378;9.688;2023-03-14T04:36:52;1.53;;;0.90;;
20609;SDS011;10463;52.378;9.688;2023-03-14T04:39:43;1.60;;;0.90;;
20609;SDS011;10463;52.378;9.688;2023-03-14T04:42:41;1.40;;;0.70;;
20609;SDS011;10463;52.378;9.688;2023-03-14T04:45:28;2.00;;;1.10;;
20609;SDS011;10463;52.378;9.688;2023-03-14T04:48:15;1.37;;;0.70;;
20609;SDS011;10463;52.378;9.688;2023-03-14T04:51:00;1.50;;;0.80;;
20609;SDS011;10463;52.378;9.688;2023-03-14T04:53:49;1.77;;;0.97;;
20609;SDS011;10463;52.378;9.688;2023-03-14T04:56:34;1.90;;;1.23;;
20609;SDS011;10463;52.378;9.688;2023-03-14T04:59:22;1.50;;;0.90;;
20609;SDS011;10463;52.378;9.688;2023-03-14T05:02:09;1.70;;;0.80;;
20609;SDS011;10463;52.378;9.688;2023-03-14T05:05:03;1.70;;;1.03;;
20609;SDS011;10463;52.378;9.688;2023-03-14T05:07:59;1.60;;;0.90;;
20609;SDS011;10463;52.378;9.688;2023-03-14T05:11:10;1.73;;;0.90;;
20609;SDS011;10463;52.378;9.688;2023-03-14T05:14:14;1.90;;;0.90;;
20609;SDS011;10463;52.378;9.688;2023-03-14T05:17:03;1.60;;;0.80;;
20609;SDS011;10463;52.378;9.688;2023-03-14T05:20:22;1.70;;;0.97;;
20609;SDS011;10463;52.378;9.688;2023-03-14T05:23:30;2.17;;;1.10;;
20609;SDS011;10463;52.378;9.688;2023-03-14T05:26:15;1.63;;;1.00;;
20609;SDS011;10463;52.378;9.688;2023-03-14T05:29:17;2.83;;;1.30;;
20609;SDS011;10463;52.378;9.688;2023-03-14T05:32:12;1.70;;;0.90;;
20609;SDS011;10463;52.378;9.688;2023-03-14T05:35:15;2.93;;;1.93;;
20609;SDS011;10463;52.378;9.688;2023-03-14T05:38:06;2.03;;;1.27;;
20609;SDS011;10463;52.378;9.688;2023-03-14T05:41:00;2.50;;;1.10;;
20609;SDS011;10463;52.378;9.688;2023-03-14T05:44:05;2.20;;;1.00;;
20609;SDS011;10463;52.378;9.688;2023-03-14T05:46:58;1.93;;;1.23;;
20609;SDS011;10463;52.378;9.688;2023-03-14T05:50:12;2.23;;;1.30;;
20609;SDS011;10463;52.378;9.688;2023-03-14T05:53:09;2.03;;;1.23;;
20609;SDS011;10463;52.378;9.688;2023-03-14T05:56:14;2.80;;;1.30;;
20609;SDS011;10463;52.378;9.688;2023-03-14T05:59:17;1.90;;;1.10;;
20609;SDS011;10463;52.378;9.688;2023-03-14T06:02:15;2.03;;;1.30;;
20609;SDS011;10463;52.378;9.688;2023-03-14T06:05:14;1.77;;;1.03;;
20609;SDS011;10463;52.378;9.688;2023-03-14T06:07:59;1.87;;;1.20;;
20609;SDS011;10463;52.378;9.688;2023-03-14T06:10:46;1.60;;;1.00;;
20609;SDS011;10463;52.378;9.688;2023-03-14T06:13:30;1.80;;;1.20;;
20609;SDS011;10463;52.378;9.688;2023-03-14T06:16:17;2.10;;;1.40;;
20609;SDS011;10463;52.378;9.688;2023-03-14T06:19:02;2.03;;;1.37;;
20609;SDS011;10463;52.378;9.688;2023-03-14T06:21:49;1.73;;;1.20;;
20609;SDS011;10463;52.378;9.688;2023-03-14T06:24:34;1.70;;;0.90;;
20609;SDS011;10463;52.378;9.688;2023-03-14T06:27:18;1.83;;;1.00;;
20609;SDS011;10463;52.378;9.688;2023-03-14T06:30:05;2.07;;;1.13;;
20609;SDS011;10463;52.378;9.688;2023-03-14T06:32:51;1.97;;;1.20;;
20609;SDS011;10463;52.378;9.688;2023-03-14T06:35:38;1.53;;;1.00;;
20609;SDS011;10463;52.378;9.688;2023-03-14T06:38:25;1.60;;;1.10;;
20609;SDS011;10463;52.378;9.688;2023-03-14T06:41:13;1.80;;;1.00;;
20609;SDS011;10463;52.378;9.688;2023-03-14T06:44:00;1.63;;;1.00;;
20609;SDS011;10463;52.378;9.688;2023-03-14T06:46:45;2.63;;;1.10;;
20609;SDS011;10463;52.378;9.688;2023-03-14T06:49:30;1.90;;;1.10;;
20609;SDS011;10463;52.378;9.688;2023-03-14T06:52:16;1.60;;;0.90;;
20609;SDS011;10463;52.378;9.688;2023-03-14T06:55:04;2.43;;;1.30;;
20609;SDS011;10463;52.378;9.688;2023-03-14T06:57:49;1.50;;;1.10;;
20609;SDS011;10463;52.378;9.688;2023-03-14T07:00:35;1.63;;;0.90;;
20609;SDS011;10463;52.378;9.688;2023-03-14T07:03:20;3.87;;;1.50;;
20609;SDS011;10463;52.378;9.688;2023-03-14T07:06:07;1.80;;;1.00;;
20609;SDS011;10463;52.378;9.688;2023-03-14T07:08:52;2.20;;;1.10;;
20609;SDS011;10463;52.378;9.688;2023-03-14T07:11:38;1.93;;;1.07;;
20609;SDS011;10463;52.378;9.688;2023-03-14T07:14:23;1.87;;;1.00;;
20609;SDS011;10463;52.378;9.688;2023-03-14T07:17:08;1.70;;;0.90;;
20609;SDS011;10463;52.378;9.688;2023-03-14T07:19:53;2.30;;;1.20;;
20609;SDS011;10463;52.378;9.688;2023-03-14T07:22:38;2.50;;;1.07;;
20609;SDS011;10463;52.378;9.688;2023-03-14T07:25:23;1.50;;;0.90;;
20609;SDS011;10463;52.378;9.688;2023-03-14T07:28:10;1.83;;;1.00;;
20609;SDS011;10463;52.378;9.688;2023-03-14T07:30:57;2.00;;;1.00;;
20609;SDS011;10463;52.378;9.688;2023-03-14T07:33:47;2.03;;;1.20;;
20609;SDS011;10463;52.378;9.688;2023-03-14T07:36:33;2.10;;;0.93;;
20609;SDS011;10463;52.378;9.688;2023-03-14T07:39:18;1.90;;;1.00;;
20609;SDS011;10463;52.378;9.688;2023-03-14T07:42:15;1.53;;;0.83;;
20609;SDS011;10463;52.378;9.688;2023-03-14T07:45:08;1.60;;;0.93;;
20609;SDS011;10463;52.378;9.688;2023-03-14T07:47:54;1.93;;;1.03;;
20609;SDS011;10463;52.378;9.688;2023-03-14T07:50:41;1.87;;;0.90;;
20609;SDS011;10463;52.378;9.688;2023-03-14T07:53:26;1.50;;;0.73;;
20609;SDS011;10463;52.378;9.688;2023-03-14T07:56:11;2.27;;;1.17;;
20609;SDS011;10463;52.378;9.688;2023-03-14T07:58:56;2.10;;;1.03;;
20609;SDS011;10463;52.378;9.688;2023-03-14T08:01:42;1.60;;;1.00;;
20609;SDS011;10463;52.378;9.688;2023-03-14T08:04:27;1.50;;;0.90;;
20609;SDS011;10463;52.378;9.688;2023-03-14T08:07:12;1.60;;;0.93;;
20609;SDS011;10463;52.378;9.688;2023-03-14T08:09:57;1.77;;;1.10;;
20609;SDS011;10463;52.378;9.688;2023-03-14T08:12:41;1.80;;;1.07;;
20609;SDS011;10463;52.378;9.688;2023-03-14T08:15:27;1.83;;;1.00;;
20609;SDS011;10463;52.378;9.688;2023-03-14T08:18:15;1.97;;;1.20;;
20609;SDS011;10463;52.378;9.688;2023-03-14T08:20:59;1.83;;;1.20;;
20609;SDS011;10463;52.378;9.688;2023-03-14T08:23:44;2.00;;;1.20;;
20609;SDS011;10463;52.378;9.688;2023-03-14T08:26:29;1.80;;;1.30;;
20609;SDS011;10463;52.378;9.688;2023-03-14T08:29:13;2.20;;;1.50;;
20609;SDS011;10463;52.378;9.688;2023-03-14T08:31:58;2.00;;;1.13;;
20609;SDS011;10463;52.378;9.688;2023-03-14T08:34:44;2.27;;;1.53;;
20609;SDS011;10463;52.378;9.688;2023-03-14T08:37:28;1.80;;;1.10;;
20609;SDS011;10463;52.378;9.688;2023-03-14T08:40:15;2.93;;;1.90;;
20609;SDS011;10463;52.378;9.688;2023-03-14T08:43:01;2.60;;;1.83;;
20609;SDS011;10463;52.378;9.688;2023-03-14T08:45:46;2.00;;;1.70;;
20609;SDS011;10463;52.378;9.688;2023-03-14T08:48:30;2.50;;;1.73;;
20609;SDS011;10463;52.378;9.688;2023-03-14T08:51:16;2.40;;;1.93;;
20609;SDS011;10463;52.378;9.688;2023-03-14T08:54:01;2.40;;;1.93;;
20609;SDS011;10463;52.378;9.688;2023-03-14T08:56:47;3.07;;;2.30;;
20609;SDS011;10463;52.378;9.688;2023-03-14T08:59:31;3.20;;;2.40;;
20609;SDS011;10463;52.378;9.688;2023-03-14T09:02:16;3.20;;;2.53;;
20609;SDS011;10463;52.378;9.688;2023-03-14T09:05:00;2.70;;;2.43;;
20609;SDS011;10463;52.378;9.688;2023-03-14T09:07:46;3.10;;;2.13;;
20609;SDS011;10463;52.378;9.688;2023-03-14T09:10:31;3.63;;;2.70;;
20609;SDS011;10463;52.378;9.688;2023-03-14T09:13:15;3.00;;;2.20;;
20609;SDS011;10463;52.378;9.688;2023-03-14T09:16:00;4.67;;;3.90;;
20609;SDS011;10463;52.378;9.688;2023-03-14T09:18:44;5.40;;;3.80;;
20609;SDS011;10463;52.378;9.688;2023-03-14T09:21:29;3.87;;;3.40;;
20609;SDS011;10463;52.378;9.688;2023-03-14T09:24:15;5.50;;;4.30;;
20609;SDS011;10463;52.378;9.688;2023-03-14T09:27:00;4.83;;;3.70;;
20609;SDS011;10463;52.378;9.688;2023-03-14T09:29:44;5.73;;;4.40;;
20609;SDS011;10463;52.378;9.688;2023-03-14T09:32:30;6.37;;;5.00;;
20609;SDS011;10463;52.378;9.688;2023-03-14T09:35:15;6.50;;;5.10;;
20609;SDS011;10463;52.378;9.688;2023-03-14T09:38:00;7.30;;;5.63;;
20609;SDS011;10463;52.378;9.688;2023-03-14T09:40:46;8.47;;;5.40;;
20609;SDS011;10463;52.378;9.688;2023-03-14T09:43:32;7.60;;;6.37;;
20609;SDS011;10463;52.378;9.688;2023-03-14T09:46:18;6.40;;;5.73;;
20609;SDS011;10463;52.378;9.688;2023-03-14T09:49:09;6.83;;;4.87;;
20609;SDS011;10463;52.378;9.688;2023-03-14T09:52:00;6.50;;;5.10;;
20609;SDS011;10463;52.378;9.688;2023-03-14T09:54:50;7.43;;;5.80;;
20609;SDS011;10463;52.378;9.688;2023-03-14T09:57:37;7.00;;;5.90;;
20609;SDS011;10463;52.378;9.688;2023-03-14T10:00:25;6.67;;;5.33;;
20609;SDS011;10463;52.378;9.688;2023-03-14T10:03:24;6.13;;;5.17;;
20609;SDS011;10463;52.378;9.688;2023-03-14T10:06:14;6.87;;;5.90;;
20609;SDS011;10463;52.378;9.688;2023-03-14T10:08:59;6.87;;;5.80;;
20609;SDS011;10463;52.378;9.688;2023-03-14T10:11:45;6.50;;;5.47;;
20609;SDS011;10463;52.378;9.688;2023-03-14T10:14:33;7.70;;;6.10;;
20609;SDS011;10463;52.378;9.688;2023-03-14T10:17:20;6.20;;;5.27;;
20609;SDS011;10463;52.378;9.688;2023-03-14T10:20:06;5.30;;;4.80;;
20609;SDS011;10463;52.378;9.688;2023-03-14T10:23:22;6.70;;;6.00;;
20609;SDS011;10463;52.378;9.688;2023-03-14T10:26:13;6.87;;;5.47;;
20609;SDS011;10463;52.378;9.688;2023-03-14T10:29:02;6.90;;;5.40;;
20609;SDS011;10463;52.378;9.688;2023-03-14T10:31:51;5.70;;;5.00;;
20609;SDS011;10463;52.378;9.688;2023-03-14T10:34:38;5.73;;;5.03;;
20609;SDS011;10463;52.378;9.688;2023-03-14T10:37:24;5.77;;;5.17;;
20609;SDS011;10463;52.378;9.688;2023-03-14T10:40:12;6.37;;;4.90;;
20609;SDS011;10463;52.378;9.688;2023-03-14T10:42:59;5.53;;;4.60;;
20609;SDS011;10463;52.378;9.688;2023-03-14T10:45:44;5.47;;;4.90;;
20609;SDS011;10463;52.378;9.688;2023-03-14T10:48:37;6.67;;;5.00;;
20609;SDS011;10463;52.378;9.688;2023-03-14T10:51:26;6.00;;;4.77;;
20609;SDS011;10463;52.378;9.688;2023-03-14T10:54:15;5.07;;;4.50;;
20609;SDS011;10463;52.378;9.688;2023-03-14T10:57:04;7.07;;;4.80;;
20609;SDS011;10463;52.378;9.688;2023-03-14T10:59:53;5.13;;;4.40;;
20609;SDS011;10463;52.378;9.688;2023-03-14T11:02:48;5.63;;;4.73;;
20609;SDS011;10463;52.378;9.688;2023-03-14T11:05:43;5.10;;;4.53;;
20609;SDS011;10463;52.378;9.688;2023-03-14T11:08:36;6.07;;;5.27;;
20609;SDS011;10463;52.378;9.688;2023-03-14T11:11:28;5.03;;;4.53;;
20609;SDS011;10463;52.378;9.688;2023-03-14T11:14:22;5.67;;;5.10;;
20609;SDS011;10463;52.378;9.688;2023-03-14T11:17:15;4.83;;;4.23;;
20609;SDS011;10463;52.378;9.688;2023-03-14T11:20:17;5.57;;;4.90;;
20609;SDS011;10463;52.378;9.688;2023-03-14T11:23:21;5.40;;;4.47;;
20609;SDS011;10463;52.378;9.688;2023-03-14T11:26:14;6.27;;;5.27;;
20609;SDS011;10463;52.378;9.688;2023-03-14T11:29:16;6.40;;;5.47;;
20609;SDS011;10463;52.378;9.688;2023-03-14T11:32:12;5.77;;;5.17;;
20609;SDS011;10463;52.378;9.688;2023-03-14T11:34:58;5.77;;;4.60;;
20609;SDS011;10463;52.378;9.688;2023-03-14T11:37:49;7.03;;;6.13;;
20609;SDS011;10463;52.378;9.688;2023-03-14T11:40:38;6.73;;;5.50;;
20609;SDS011;10463;52.378;9.688;2023-03-14T11:43:28;7.10;;;6.20;;
20609;SDS011;10463;52.378;9.688;2023-03-14T11:46:17;8.17;;;7.10;;
20609;SDS011;10463;52.378;9.688;2023-03-14T11:49:08;7.27;;;6.40;;
20609;SDS011;10463;52.378;9.688;2023-03-14T11:52:04;8.77;;;7.87;;
20609;SDS011;10463;52.378;9.688;2023-03-14T11:54:56;7.70;;;6.90;;
20609;SDS011;10463;52.378;9.688;2023-03-14T11:57:48;8.30;;;7.30;;
20609;SDS011;10463;52.378;9.688;2023-03-14T12:00:35;10.40;;;7.90;;
20609;SDS011;10463;52.378;9.688;2023-03-14T12:03:27;9.47;;;7.90;;
20609;SDS011;10463;52.378;9.688;2023-03-14T12:06:20;9.60;;;7.23;;
20609;SDS011;10463;52.378;9.688;2023-03-14T12:09:08;10.30;;;8.00;;
20609;SDS011;10463;52.378;9.688;2023-03-14T12:11:54;8.87;;;7.20;;
20609;SDS011;10463;52.378;9.688;2023-03-14T12:14:47;8.97;;;7.20;;
20609;SDS011;10463;52.378;9.688;2023-03-14T12:17:39;8.20;;;7.40;;
20609;SDS011;10463;52.378;9.688;2023-03-14T12:20:26;7.57;;;6.77;;
20609;SDS011;10463;52.378;9.688;2023-03-14T12:23:12;9.80;;;7.60;;
20609;SDS011;10463;52.378;9.688;2023-03-14T12:26:07;9.40;;;7.50;;
20609;SDS011;10463;52.378;9.688;2023-03-14T12:29:11;9.10;;;7.50;;
20609;SDS011;10463;52.378;9.688;2023-03-14T12:32:12;12.53;;;7.20;;
20609;SDS011;10463;52.378;9.688;2023-03-14T12:38:32;6.73;;;6.03;;
20609;SDS011;10463;52.378;9.688;2023-03-14T12:41:29;7.90;;;6.33;;
20609;SDS011;10463;52.378;9.688;2023-03-14T12:44:40;9.53;;;6.90;;
20609;SDS011;10463;52.378;9.688;2023-03-14T12:47:53;8.60;;;7.27;;
20609;SDS011;10463;52.378;9.688;2023-03-14T12:50:45;8.53;;;7.40;;
20609;SDS011;10463;52.378;9.688;2023-03-14T12:54:04;7.13;;;6.27;;
20609;SDS011;10463;52.378;9.688;2023-03-14T12:57:11;7.03;;;6.20;;
20609;SDS011;10463;52.378;9.688;2023-03-14T13:00:11;5.63;;;5.03;;
20609;SDS011;10463;52.378;9.688;2023-03-14T13:03:13;7.73;;;5.97;;
20609;SDS011;10463;52.378;9.688;2023-03-14T13:06:03;6.27;;;5.20;;
20609;SDS011;10463;52.378;9.688;2023-03-14T13:08:48;6.80;;;5.87;;
20609;SDS011;10463;52.378;9.688;2023-03-14T13:11:36;5.97;;;5.37;;
20609;SDS011;10463;52.378;9.688;2023-03-14T13:14:25;6.60;;;5.30;;
20609;SDS011;10463;52.378;9.688;2023-03-14T13:17:13;5.97;;;5.10;;
20609;SDS011;10463;52.378;9.688;2023-03-14T13:20:03;5.70;;;4.97;;
20609;SDS011;10463;52.378;9.688;2023-03-14T13:22:55;5.70;;;5.10;;
20609;SDS011;10463;52.378;9.688;2023-03-14T13:25:40;5.83;;;5.07;;
20609;SDS011;10463;52.378;9.688;2023-03-14T13:28:26;5.70;;;5.10;;
20609;SDS011;10463;52.378;9.688;2023-03-14T13:31:20;7.60;;;5.20;;
20609;SDS011;10463;52.378;9.688;2023-03-14T13:34:09;6.10;;;4.97;;
20609;SDS011;10463;52.378;9.688;2023-03-14T13:36:56;6.33;;;5.03;;
20609;SDS011;10463;52.378;9.688;2023-03-14T13:39:41;6.50;;;5.27;;
20609;SDS011;10463;52.378;9.688;2023-03-14T13:42:27;5.83;;;5.20;;
20609;SDS011;10463;52.378;9.688;2023-03-14T13:45:13;5.23;;;4.50;;
20609;SDS011;10463;52.378;9.688;2023-03-14T13:47:58;4.97;;;4.27;;
20609;SDS011;10463;52.378;9.688;2023-03-14T13:50:49;5.00;;;4.50;;
20609;SDS011;10463;52.378;9.688;2023-03-14T13:53:43;6.40;;;4.87;;
20609;SDS011;10463;52.378;9.688;2023-03-14T13:56:30;5.10;;;4.37;;
20609;SDS011;10463;52.378;9.688;2023-03-14T13:59:21;6.70;;;4.90;;
20609;SDS011;10463;52.378;9.688;2023-03-14T14:02:10;4.57;;;4.17;;
20609;SDS011;10463;52.378;9.688;2023-03-14T14:04:58;5.53;;;4.93;;
20609;SDS011;10463;52.378;9.688;2023-03-14T14:07:44;6.83;;;4.60;;
20609;SDS011;10463;52.378;9.688;2023-03-14T14:10:31;5.83;;;4.33;;
20609;SDS011;10463;52.378;9.688;2023-03-14T14:13:17;5.13;;;4.07;;
20609;SDS011;10463;52.378;9.688;2023-03-14T14:16:06;7.40;;;4.60;;
20609;SDS011;10463;52.378;9.688;2023-03-14T14:18:52;6.20;;;5.33;;
20609;SDS011;10463;52.378;9.688;2023-03-14T14:21:39;5.57;;;4.27;;
20609;SDS011;10463;52.378;9.688;2023-03-14T14:24:27;6.50;;;4.70;;
20609;SDS011;10463;52.378;9.688;2023-03-14T14:27:16;5.83;;;4.33;;
20609;SDS011;10463;52.378;9.688;2023-03-14T14:30:21;5.50;;;4.47;;
20609;SDS011;10463;52.378;9.688;2023-03-14T14:33:17;5.03;;;4.53;;
20609;SDS011;10463;52.378;9.688;2023-03-14T14:36:03;5.10;;;4.07;;
20609;SDS011;10463;52.378;9.688;2023-03-14T14:38:52;6.50;;;4.40;;
20609;SDS011;10463;52.378;9.688;2023-03-14T14:41:40;6.10;;;4.20;;
20609;SDS011;10463;52.378;9.688;2023-03-14T14:44:29;4.57;;;4.10;;
20609;SDS011;10463;52.378;9.688;2023-03-14T14:47:17;4.20;;;3.30;;
20609;SDS011;10463;52.378;9.688;2023-03-14T14:50:04;4.73;;;4.03;;
20609;SDS011;10463;52.378;9.688;2023-03-14T14:53:20;4.37;;;3.53;;
20609;SDS011;10463;52.378;9.688;2023-03-14T14:56:16;4.00;;;3.60;;
20609;SDS011;10463;52.378;9.688;2023-03-14T14:59:03;4.27;;;3.60;;
20609;SDS011;10463;52.378;9.688;2023-03-14T15:01:56;5.50;;;3.93;;
20609;SDS011;10463;52.378;9.688;2023-03-14T15:04:42;5.90;;;4.40;;
20609;SDS011;10463;52.378;9.688;2023-03-14T15:07:26;4.50;;;3.73;;
20609;SDS011;10463;52.378;9.688;2023-03-14T15:10:12;4.33;;;3.30;;
20609;SDS011;10463;52.378;9.688;2023-03-14T15:13:00;4.90;;;3.50;;
20609;SDS011;10463;52.378;9.688;2023-03-14T15:15:44;4.40;;;3.60;;
20609;SDS011;10463;52.378;9.688;2023-03-14T15:18:31;4.60;;;3.80;;
20609;SDS011;10463;52.378;9.688;2023-03-14T15:21:16;3.43;;;2.97;;
20609;SDS011;10463;52.378;9.688;2023-03-14T15:24:01;4.20;;;3.70;;
20609;SDS011;10463;52.378;9.688;2023-03-14T15:26:46;3.97;;;3.13;;
20609;SDS011;10463;52.378;9.688;2023-03-14T15:29:30;4.83;;;3.53;;
20609;SDS011;10463;52.378;9.688;2023-03-14T15:32:16;6.33;;;4.17;;
20609;SDS011;10463;52.378;9.688;2023-03-14T15:35:04;4.97;;;3.87;;
20609;SDS011;10463;52.378;9.688;2023-03-14T15:37:49;5.27;;;4.07;;
20609;SDS011;10463;52.378;9.688;2023-03-14T15:40:34;4.40;;;3.40;;
20609;SDS011;10463;52.378;9.688;2023-03-14T15:43:18;3.77;;;2.80;;
20609;SDS011;10463;52.378;9.688;2023-03-14T15:46:03;4.67;;;3.03;;
20609;SDS011;10463;52.378;9.688;2023-03-14T15:48:51;4.07;;;2.93;;
20609;SDS011;10463;52.378;9.688;2023-03-14T15:51:37;4.10;;;3.20;;
20609;SDS011;10463;52.378;9.688;2023-03-14T15:54:22;3.87;;;3.00;;
20609;SDS011;10463;52.378;9.688;2023-03-14T15:57:09;4.13;;;3.30;;
20609;SDS011;10463;52.378;9.688;2023-03-14T15:59:54;3.10;;;2.33;;
20609;SDS011;10463;52.378;9.688;2023-03-14T16:02:40;4.43;;;3.60;;
20609;SDS011;10463;52.378;9.688;2023-03-14T16:05:25;4.00;;;3.20;;
20609;SDS011;10463;52.378;9.688;2023-03-14T16:08:11;3.80;;;2.80;;
20609;SDS011;10463;52.378;9.688;2023-03-14T16:10:57;4.10;;;3.17;;
20609;SDS011;10463;52.378;9.688;2023-03-14T16:13:43;4.20;;;3.07;;
20609;SDS011;10463;52.378;9.688;2023-03-14T16:16:28;4.00;;;3.03;;
20609;SDS011;10463;52.378;9.688;2023-03-14T16:19:13;4.33;;;3.50;;
20609;SDS011;10463;52.378;9.688;2023-03-14T16:21:58;3.63;;;2.57;;
20609;SDS011;10463;52.378;9.688;2023-03-14T16:24:44;4.53;;;2.70;;
20609;SDS011;10463;52.378;9.688;2023-03-14T16:27:29;3.90;;;2.73;;
20609;SDS011;10463;52.378;9.688;2023-03-14T16:30:14;3.47;;;3.00;;
20609;SDS011;10463;52.378;9.688;2023-03-14T16:32:59;3.80;;;3.40;;
20609;SDS011;10463;52.378;9.688;2023-03-14T16:35:54;2.73;;;2.23;;
20609;SDS011;10463;52.378;9.688;2023-03-14T16:38:41;3.10;;;2.70;;
20609;SDS011;10463;52.378;9.688;2023-03-14T16:41:29;4.17;;;3.27;;
20609;SDS011;10463;52.378;9.688;2023-03-14T16:44:14;4.40;;;3.57;;
20609;SDS011;10463;52.378;9.688;2023-03-14T16:46:59;3.97;;;3.27;;
20609;SDS011;10463;52.378;9.688;2023-03-14T16:49:43;3.20;;;2.73;;
20609;SDS011;10463;52.378;9.688;2023-03-14T16:52:28;3.90;;;3.07;;
20609;SDS011;10463;52.378;9.688;2023-03-14T16:55:12;3.67;;;3.00;;
20609;SDS011;10463;52.378;9.688;2023-03-14T16:57:58;4.03;;;2.93;;
20609;SDS011;10463;52.378;9.688;2023-03-14T17:00:43;4.37;;;3.10;;
20609;SDS011;10463;52.378;9.688;2023-03-14T17:03:29;4.23;;;3.57;;